Glen Springs, Kentucky
Current Conditions -  °F | °C
As of 1:35 PM on Sunday 23 Nov 2014 (Local Time) from KFGX Reporting Station
Light Rain Light Rain  
Wind Chill: 59°   Ceiling: 6500
Heat Index: 59°   Visibility: 10mi
Dew Point: 47°   Wind: 7mph
Humidity: 65%   Direction: 170°S
Pressure: 29.81"   Gusts: NA
Location:  38.4929°N, 83.3898°W
Report Text: KFGX 231835Z AUTO 17006KT 10SM -RA SCT060 OVC065 15/08 A2981 RMK AO2 T01500084
Loading
Personal Weather Stations






























Interactive Weather Map New forecast layout! Learn more

10-Day Weather Forecast

Advertisements
Track Severe Weather on mobile